createdAt,value
2022-08-10T00:01:57.740Z,0
2022-08-10T00:08:20.649Z,0
2022-08-10T00:14:40.739Z,0
2022-08-10T00:21:00.762Z,0
2022-08-10T00:27:46.789Z,0
2022-08-10T00:33:43.771Z,0
2022-08-10T00:40:06.779Z,0
2022-08-10T00:46:26.720Z,0
2022-08-10T00:52:49.754Z,0
2022-08-10T00:59:09.725Z,0
2022-08-10T01:05:32.770Z,0
2022-08-10T01:12:40.120Z,0
2022-08-10T01:18:15.803Z,0
2022-08-10T01:24:35.734Z,0
2022-08-10T01:30:58.762Z,0
2022-08-10T01:37:18.732Z,0
2022-08-10T01:43:41.772Z,0
2022-08-10T01:50:01.778Z,0
2022-08-10T01:56:24.799Z,0
2022-08-10T02:02:44.793Z,0
2022-08-10T02:09:07.851Z,0
2022-08-10T02:15:27.798Z,0
2022-08-10T02:22:37.275Z,0
2022-08-10T02:28:10.780Z,0
2022-08-10T02:34:33.762Z,0
2022-08-10T02:42:17.713Z,0
2022-08-10T02:47:16.773Z,0
2022-08-10T02:53:49.669Z,0
2022-08-10T02:59:59.746Z,0
2022-08-10T03:06:19.777Z,0
2022-08-10T03:12:42.760Z,0
2022-08-10T03:19:02.798Z,0
2022-08-10T03:25:25.752Z,0
2022-08-10T03:31:45.780Z,0
2022-08-10T03:56:34.192Z,0
2022-08-10T04:02:54.089Z,0
2022-08-10T04:09:16.790Z,0
2022-08-10T04:15:36.754Z,0
2022-08-10T04:21:59.757Z,0
2022-08-10T04:28:19.764Z,0
2022-08-10T04:34:42.784Z,5.62
2022-08-10T04:41:02.831Z,5.62
2022-08-10T04:47:57.952Z,5.62
2022-08-10T04:54:03.720Z,5.62
2022-08-10T05:00:19.038Z,11.25
2022-08-10T05:06:28.782Z,11.25
2022-08-10T05:12:51.754Z,11.25
2022-08-10T05:19:11.733Z,11.25
2022-08-10T05:25:37.321Z,11.25
2022-08-10T05:31:54.737Z,16.88
2022-08-10T05:38:17.764Z,16.88
2022-08-10T05:44:37.750Z,16.88
2022-08-10T05:51:00.740Z,16.88
2022-08-10T05:57:20.783Z,22.5
2022-08-10T06:03:43.751Z,22.5
2022-08-10T06:10:03.979Z,22.5
2022-08-10T06:16:26.763Z,22.5
2022-08-10T06:22:46.732Z,22.5
2022-08-10T06:29:09.766Z,22.5
2022-08-10T06:35:29.726Z,28.12
2022-08-10T06:41:57.571Z,28.12
2022-08-10T06:48:12.771Z,28.12
2022-08-10T06:54:35.738Z,28.12
2022-08-10T07:00:55.885Z,28.12
2022-08-10T07:07:18.730Z,33.75
2022-08-10T07:14:15.080Z,33.75
2022-08-10T07:20:01.905Z,33.75
2022-08-10T07:26:21.753Z,33.75
2022-08-10T07:32:44.757Z,33.75
2022-08-10T07:39:04.810Z,33.75
2022-08-10T07:45:27.800Z,39.38
2022-08-10T07:51:47.746Z,39.38
2022-08-10T07:58:10.755Z,39.38
2022-08-10T08:04:30.782Z,39.38
2022-08-10T08:10:53.742Z,45
2022-08-10T08:17:13.772Z,45
2022-08-10T08:24:03.582Z,50.62
2022-08-10T08:29:56.768Z,50.62
2022-08-10T08:36:19.759Z,50.62
2022-08-10T08:42:39.739Z,50.62
2022-08-10T08:49:02.778Z,56.25
2022-08-10T08:55:50.314Z,56.25
2022-08-10T09:01:45.778Z,56.25
2022-08-10T09:08:05.750Z,56.25
2022-08-10T09:14:28.751Z,61.88
2022-08-10T09:38:01.589Z,61.88
2022-08-10T09:44:11.739Z,67.5
2022-08-10T09:50:59.210Z,67.5
2022-08-10T09:57:03.062Z,73.12
2022-08-10T10:03:19.720Z,73.12
2022-08-10T10:09:37.762Z,78.75
2022-08-10T10:16:00.739Z,78.75
2022-08-10T10:22:20.783Z,78.75
2022-08-10T10:29:15.562Z,78.75
2022-08-10T10:35:03.837Z,78.75
2022-08-10T10:41:26.882Z,84.38
2022-08-10T10:47:46.873Z,84.38
2022-08-10T10:54:09.774Z,84.38
2022-08-10T11:00:29.750Z,84.38
2022-08-10T11:06:52.747Z,84.38
2022-08-10T11:14:23.858Z,90
2022-08-10T11:20:00.030Z,90
2022-08-10T11:25:55.775Z,90
2022-08-10T11:32:20.704Z,95.62
2022-08-10T11:38:52.176Z,95.62
2022-08-10T11:45:02.025Z,101.25
2022-08-10T11:51:21.732Z,101.25
2022-08-10T11:57:53.690Z,106.88
2022-08-10T12:04:04.728Z,112.5
2022-08-10T12:10:27.763Z,112.5
2022-08-10T12:16:47.765Z,118.12
2022-08-10T12:23:10.775Z,129.38
2022-08-10T12:29:30.766Z,123.75
2022-08-10T12:36:15.207Z,129.38
2022-08-10T12:42:34.984Z,135
2022-08-10T12:48:36.775Z,135
2022-08-10T12:54:56.770Z,140.62
2022-08-10T13:01:19.870Z,140.62
2022-08-10T13:08:04.397Z,146.25
2022-08-10T13:14:02.794Z,151.88
2022-08-10T13:20:22.733Z,151.88
2022-08-10T13:26:49.576Z,157.5
2022-08-10T13:33:05.737Z,157.5
2022-08-10T13:39:28.882Z,157.5
2022-08-10T13:45:50.082Z,157.5
2022-08-10T13:52:11.728Z,157.5
2022-08-10T13:58:31.751Z,163.12
2022-08-10T14:04:54.755Z,163.12
2022-08-10T14:11:14.735Z,168.75
2022-08-10T14:17:41.391Z,168.75
2022-08-10T14:23:57.735Z,163.12
2022-08-10T14:30:20.775Z,163.12
2022-08-10T14:36:40.732Z,163.12
2022-08-10T14:43:03.743Z,157.5
2022-08-10T14:49:25.171Z,146.25
2022-08-10T14:55:57.912Z,135
2022-08-10T15:18:57.439Z,129.38
2022-08-10T15:25:18.547Z,129.38
2022-08-10T15:31:34.769Z,129.38
2022-08-10T15:37:54.816Z,129.38
2022-08-10T15:44:17.735Z,135
2022-08-10T15:50:40.029Z,146.25
2022-08-10T15:57:00.730Z,151.88
2022-08-10T16:03:20.790Z,157.5
2022-08-10T16:10:11.540Z,157.5
2022-08-10T16:16:03.730Z,253.12
2022-08-10T16:22:34.597Z,236.25
2022-08-10T16:28:46.736Z,286.88
2022-08-10T16:35:09.861Z,135
2022-08-10T16:42:02.068Z,118.12
2022-08-10T16:47:52.759Z,123.75
2022-08-10T16:54:12.752Z,118.12
2022-08-10T17:00:35.735Z,118.12
2022-08-10T17:06:56.551Z,151.88
2022-08-10T17:13:18.831Z,264.38
2022-08-10T17:19:38.761Z,118.12
2022-08-10T17:26:01.828Z,78.75
2022-08-10T17:32:21.856Z,67.5
2022-08-10T17:38:44.812Z,56.25
2022-08-10T17:45:05.845Z,45
2022-08-10T17:51:30.967Z,33.75
2022-08-10T17:57:48.949Z,28.12
2022-08-10T18:04:11.727Z,22.5
2022-08-10T18:10:31.797Z,16.88
2022-08-10T18:16:54.735Z,11.25
2022-08-10T18:23:15.630Z,11.25
2022-08-10T18:29:39.392Z,11.25
2022-08-10T18:35:59.734Z,5.62
2022-08-10T18:42:22.730Z,5.62
2022-08-10T18:48:42.743Z,5.62
2022-08-10T18:55:14.026Z,0
2022-08-10T19:01:25.866Z,0
2022-08-10T19:07:48.741Z,0
2022-08-10T19:14:08.751Z,0
2022-08-10T19:20:31.730Z,0
2022-08-10T19:26:51.747Z,0
2022-08-10T19:33:14.815Z,0
2022-08-10T19:39:34.844Z,0
2022-08-10T19:46:02.271Z,0
2022-08-10T19:52:17.718Z,0
2022-08-10T19:58:40.790Z,0
2022-08-10T20:05:00.713Z,0
2022-08-10T20:11:45.366Z,0
2022-08-10T20:17:44.942Z,0
2022-08-10T20:24:06.728Z,0
2022-08-10T20:30:26.774Z,0
2022-08-10T20:53:49.821Z,0
2022-08-10T21:00:12.721Z,0
2022-08-10T21:06:42.497Z,0
2022-08-10T21:12:55.738Z,0
2022-08-10T21:19:15.802Z,0
2022-08-10T21:25:38.754Z,0
2022-08-10T21:31:58.721Z,0
2022-08-10T21:38:21.758Z,0
2022-08-10T21:44:41.727Z,0
2022-08-10T21:51:05.746Z,0
2022-08-10T21:57:24.754Z,0
2022-08-10T22:20:24.746Z,0
2022-08-10T22:26:41.714Z,0
2022-08-10T22:33:04.757Z,0
2022-08-10T22:40:07.514Z,0
2022-08-10T22:45:47.726Z,0
2022-08-10T22:52:07.779Z,0
2022-08-10T22:58:30.721Z,0
2022-08-10T23:04:50.775Z,0
2022-08-10T23:11:13.762Z,0
2022-08-10T23:18:01.283Z,0
2022-08-10T23:23:56.764Z,0
2022-08-10T23:30:17.333Z,0
2022-08-10T23:36:39.752Z,0
2022-08-10T23:42:59.742Z,0
2022-08-10T23:49:23.266Z,0
2022-08-10T23:55:46.946Z,0
